Station Historical Data
Daily Summary for May 4, 2017 Units:  Both    English   Metric
« Previous Day
Next Day »
Daily Weekly Monthly Yearly Custom
  High: Low: Average:
Temperature: 53.4 °F /  11.9 °C 39.1 °F /  3.9 °C 46 °F /  7.8 °C
Dew Point: 44.6 °F /  7 °C 32.0 °F /  0 °C 38.9 °F /  3.8 °C
Humidity: 92% 45% 78%
Wind Speed: 11.0mph /  17.7km/h - 2.7mph /  4.3km/h
Wind Gust: 14.0mph /  22.5km/h - -
Wind- - East
Pressure: 30.23 in /  1023.6 hPa 29.85 in /  1010.7 hPa -
Precipitation: 0.00 in /  0 mm    
Historical Graphs
 
 
Tabular Data for May 4, 2017
Time Temperature Dew Point Pressure Wind Wind Speed Wind Gust Humidity Rainfall Rate (Hourly)
00:00 42.7 °F /  5.9 °C 36.3 °F /  2.4 °C 30.21in /  1022.9hPa Calm   2.0mph /  3.2km/h 78% 0.00in /  0mm
00:05 42.6 °F /  5.9 °C 35.9 °F /  2.2 °C 30.22in /  1023.2hPa Calm   2.0mph /  3.2km/h 77% 0.00in /  0mm
00:10 42.7 °F /  5.9 °C 36.0 °F /  2.2 °C 30.22in /  1023.2hPa Calm   2.0mph /  3.2km/h 77% 0.00in /  0mm
00:15 42.7 °F /  5.9 °C 36.0 °F /  2.2 °C 30.22in /  1023.2hPa South 1.0mph /  1.6km/h 2.0mph /  3.2km/h 77% 0.00in /  0mm
00:20 42.5 °F /  5.8 °C 35.8 °F /  2.1 °C 30.22in /  1023.2hPa South 1.0mph /  1.6km/h 2.0mph /  3.2km/h 77% 0.00in /  0mm
00:25 42.2 °F /  5.7 °C 35.5 °F /  1.9 °C 30.22in /  1023.2hPa Calm     77% 0.00in /  0mm
00:30 41.9 °F /  5.5 °C 35.5 °F /  1.9 °C 30.23in /  1023.6hPa Calm     78% 0.00in /  0mm
00:35 41.7 °F /  5.4 °C 35.3 °F /  1.8 °C 30.22in /  1023.2hPa Calm     78% 0.00in /  0mm
00:40 41.6 °F /  5.3 °C 35.2 °F /  1.8 °C 30.22in /  1023.2hPa Calm     78% 0.00in /  0mm
00:45 41.5 °F /  5.3 °C 35.2 °F /  1.8 °C 30.23in /  1023.6hPa Calm     78% 0.00in /  0mm
00:50 41.3 °F /  5.2 °C 35.0 °F /  1.7 °C 30.23in /  1023.6hPa Calm     78% 0.00in /  0mm
00:55 41.2 °F /  5.1 °C 34.9 °F /  1.6 °C 30.23in /  1023.6hPa Calm     78% 0.00in /  0mm
01:00 41.2 °F /  5.1 °C 35.2 °F /  1.8 °C 30.23in /  1023.6hPa Calm     79% 0.00in /  0mm
01:05 41.0 °F /  5 °C 35.0 °F /  1.7 °C 30.23in /  1023.6hPa Calm     79% 0.00in /  0mm
01:10 40.9 °F /  4.9 °C 34.9 °F /  1.6 °C 30.23in /  1023.6hPa Calm     79% 0.00in /  0mm
01:15 41.1 °F /  5.1 °C 35.1 °F /  1.7 °C 30.22in /  1023.2hPa Calm     79% 0.00in /  0mm
01:20 41.3 °F /  5.2 °C 35.0 °F /  1.7 °C 30.23in /  1023.6hPa Calm     78% 0.00in /  0mm
01:25 41.4 °F /  5.2 °C 35.4 °F /  1.9 °C 30.22in /  1023.2hPa Calm   2.0mph /  3.2km/h 79% 0.00in /  0mm
01:30 41.4 °F /  5.2 °C 35.4 °F /  1.9 °C 30.22in /  1023.2hPa Calm     79% 0.00in /  0mm
01:35 41.3 °F /  5.2 °C 35.3 °F /  1.8 °C 30.22in /  1023.2hPa Calm     79% 0.00in /  0mm
01:40 41.3 °F /  5.2 °C 35.3 °F /  1.8 °C 30.22in /  1023.2hPa Calm   1.0mph /  1.6km/h 79% 0.00in /  0mm
01:45 41.2 °F /  5.1 °C 35.2 °F /  1.8 °C 30.21in /  1022.9hPa South 1.0mph /  1.6km/h 1.0mph /  1.6km/h 79% 0.00in /  0mm
01:50 41.2 °F /  5.1 °C 35.2 °F /  1.8 °C 30.21in /  1022.9hPa Calm   1.0mph /  1.6km/h 79% 0.00in /  0mm
01:55 41.3 °F /  5.2 °C 35.3 °F /  1.8 °C 30.21in /  1022.9hPa Calm   2.0mph /  3.2km/h 79% 0.00in /  0mm
02:00 41.3 °F /  5.2 °C 35.3 °F /  1.8 °C 30.20in /  1022.6hPa Calm   2.0mph /  3.2km/h 79% 0.00in /  0mm
02:05 41.3 °F /  5.2 °C 35.3 °F /  1.8 °C 30.20in /  1022.6hPa Calm   2.0mph /  3.2km/h 79% 0.00in /  0mm
02:10 41.2 °F /  5.1 °C 35.2 °F /  1.8 °C 30.20in /  1022.6hPa Calm     79% 0.00in /  0mm
02:15 41.0 °F /  5 °C 35.0 °F /  1.7 °C 30.20in /  1022.6hPa Calm     79% 0.00in /  0mm
02:20 40.8 °F /  4.9 °C 34.8 °F /  1.6 °C 30.20in /  1022.6hPa South 2.0mph /  3.2km/h 2.0mph /  3.2km/h 79% 0.00in /  0mm
02:25 40.6 °F /  4.8 °C 34.6 °F /  1.4 °C 30.19in /  1022.2hPa Calm   2.0mph /  3.2km/h 79% 0.00in /  0mm
02:30 40.4 °F /  4.7 °C 34.4 °F /  1.3 °C 30.19in /  1022.2hPa SSE 1.0mph /  1.6km/h 3.0mph /  4.8km/h 79% 0.00in /  0mm
02:35 40.3 °F /  4.6 °C 34.6 °F /  1.4 °C 30.19in /  1022.2hPa SE 1.0mph /  1.6km/h 4.0mph /  6.4km/h 80% 0.00in /  0mm
02:40 40.3 °F /  4.6 °C 34.6 °F /  1.4 °C 30.19in /  1022.2hPa SE 1.0mph /  1.6km/h 4.0mph /  6.4km/h 80% 0.00in /  0mm
02:45 40.1 °F /  4.5 °C 34.4 °F /  1.3 °C 30.18in /  1021.9hPa Calm     80% 0.00in /  0mm
02:50 40.0 °F /  4.4 °C 34.3 °F /  1.3 °C 30.18in /  1021.9hPa SE 2.0mph /  3.2km/h 2.0mph /  3.2km/h 80% 0.00in /  0mm
02:55 39.8 °F /  4.3 °C 34.1 °F /  1.2 °C 30.18in /  1021.9hPa Calm   2.0mph /  3.2km/h 80% 0.00in /  0mm
03:00 39.7 °F /  4.3 °C 34.3 °F /  1.3 °C 30.18in /  1021.9hPa Calm   3.0mph /  4.8km/h 81% 0.00in /  0mm
03:05 39.7 °F /  4.3 °C 34.3 °F /  1.3 °C 30.18in /  1021.9hPa Calm     81% 0.00in /  0mm
03:10 39.7 °F /  4.3 °C 34.3 °F /  1.3 °C 30.18in /  1021.9hPa ESE 1.0mph /  1.6km/h 2.0mph /  3.2km/h 81% 0.00in /  0mm
03:15 39.6 °F /  4.2 °C 34.2 °F /  1.2 °C 30.18in /  1021.9hPa Calm   2.0mph /  3.2km/h 81% 0.00in /  0mm
03:20 39.4 °F /  4.1 °C 34.1 °F /  1.2 °C 30.18in /  1021.9hPa Calm   1.0mph /  1.6km/h 81% 0.00in /  0mm
03:25 39.3 °F /  4.1 °C 34.3 °F /  1.3 °C 30.18in /  1021.9hPa Calm   1.0mph /  1.6km/h 82% 0.00in /  0mm
03:30 39.2 °F /  4 °C 34.2 °F /  1.2 °C 30.18in /  1021.9hPa Calm   2.0mph /  3.2km/h 82% 0.00in /  0mm
03:35 39.1 °F /  3.9 °C 34.1 °F /  1.2 °C 30.17in /  1021.6hPa Calm   2.0mph /  3.2km/h 82% 0.00in /  0mm
03:45 39.1 °F /  3.9 °C 34.1 °F /  1.2 °C 30.18in /  1021.9hPa ESE 1.0mph /  1.6km/h 2.0mph /  3.2km/h 82% 0.00in /  0mm
03:50 39.3 °F /  4.1 °C 34.3 °F /  1.3 °C 30.18in /  1021.9hPa SE 1.0mph /  1.6km/h 2.0mph /  3.2km/h 82% 0.00in /  0mm
03:55 39.4 °F /  4.1 °C 34.4 °F /  1.3 °C 30.18in /  1021.9hPa SE 1.0mph /  1.6km/h 2.0mph /  3.2km/h 82% 0.00in /  0mm
04:00 39.3 °F /  4.1 °C 34.3 °F /  1.3 °C 30.18in /  1021.9hPa Calm   2.0mph /  3.2km/h 82% 0.00in /  0mm
04:05 39.2 °F /  4 °C 34.2 °F /  1.2 °C 30.18in /  1021.9hPa Calm     82% 0.00in /  0mm
04:10 39.3 °F /  4.1 °C 34.3 °F /  1.3 °C 30.19in /  1022.2hPa Calm     82% 0.00in /  0mm
04:15 39.1 °F /  3.9 °C 34.1 °F /  1.2 °C 30.19in /  1022.2hPa Calm     82% 0.00in /  0mm
04:20 39.1 °F /  3.9 °C 34.1 °F /  1.2 °C 30.19in /  1022.2hPa Calm     82% 0.00in /  0mm
04:25 39.2 °F /  4 °C 34.2 °F /  1.2 °C 30.18in /  1021.9hPa Calm     82% 0.00in /  0mm
04:30 39.3 °F /  4.1 °C 34.3 °F /  1.3 °C 30.18in /  1021.9hPa Calm     82% 0.00in /  0mm
04:35 39.3 °F /  4.1 °C 34.3 °F /  1.3 °C 30.18in /  1021.9hPa Calm     82% 0.00in /  0mm
04:40 39.2 °F /  4 °C 34.5 °F /  1.4 °C 30.18in /  1021.9hPa Calm     83% 0.00in /  0mm
04:45 39.3 °F /  4.1 °C 34.6 °F /  1.4 °C 30.18in /  1021.9hPa Calm     83% 0.00in /  0mm
04:50 39.5 °F /  4.2 °C 34.5 °F /  1.4 °C 30.18in /  1021.9hPa Calm     82% 0.00in /  0mm
05:00 39.5 °F /  4.2 °C 34.5 °F /  1.4 °C 30.18in /  1021.9hPa Calm   2.0mph /  3.2km/h 82% 0.00in /  0mm
05:05 39.6 °F /  4.2 °C 34.6 °F /  1.4 °C 30.17in /  1021.6hPa Calm   3.0mph /  4.8km/h 82% 0.00in /  0mm
05:10 39.8 °F /  4.3 °C 34.8 °F /  1.6 °C 30.17in /  1021.6hPa SE 1.0mph /  1.6km/h 3.0mph /  4.8km/h 82% 0.00in /  0mm
05:15 39.9 °F /  4.4 °C 34.9 °F /  1.6 °C 30.18in /  1021.9hPa Calm     82% 0.00in /  0mm
05:20 40.0 °F /  4.4 °C 34.9 °F /  1.6 °C 30.18in /  1021.9hPa Calm     82% 0.00in /  0mm
05:25 40.1 °F /  4.5 °C 35.0 °F /  1.7 °C 30.18in /  1021.9hPa Calm   2.0mph /  3.2km/h 82% 0.00in /  0mm
05:30 40.2 °F /  4.6 °C 35.1 °F /  1.7 °C 30.18in /  1021.9hPa Calm   2.0mph /  3.2km/h 82% 0.00in /  0mm
05:35 40.4 °F /  4.7 °C 35.3 °F /  1.8 °C 30.19in /  1022.2hPa Calm   3.0mph /  4.8km/h 82% 0.00in /  0mm
05:40 40.4 °F /  4.7 °C 35.0 °F /  1.7 °C 30.19in /  1022.2hPa Calm   3.0mph /  4.8km/h 81% 0.00in /  0mm
05:45 40.5 °F /  4.7 °C 35.1 °F /  1.7 °C 30.19in /  1022.2hPa Calm   2.0mph /  3.2km/h 81% 0.00in /  0mm
05:50 40.5 °F /  4.7 °C 35.1 °F /  1.7 °C 30.19in /  1022.2hPa Calm   3.0mph /  4.8km/h 81% 0.00in /  0mm
05:55 40.6 °F /  4.8 °C 35.2 °F /  1.8 °C 30.19in /  1022.2hPa Calm   3.0mph /  4.8km/h 81% 0.00in /  0mm
06:00 40.6 °F /  4.8 °C 35.2 °F /  1.8 °C 30.19in /  1022.2hPa Calm   2.0mph /  3.2km/h 81% 0.00in /  0mm
06:05 40.5 °F /  4.7 °C 35.1 °F /  1.7 °C 30.19in /  1022.2hPa Calm   2.0mph /  3.2km/h 81% 0.00in /  0mm
06:10 40.5 °F /  4.7 °C 35.1 °F /  1.7 °C 30.19in /  1022.2hPa SE 1.0mph /  1.6km/h 3.0mph /  4.8km/h 81% 0.00in /  0mm
06:15 40.4 °F /  4.7 °C 35.0 °F /  1.7 °C 30.19in /  1022.2hPa ESE 2.0mph /  3.2km/h 4.0mph /  6.4km/h 81% 0.00in /  0mm
06:20 40.5 °F /  4.7 °C 35.1 °F /  1.7 °C 30.19in /  1022.2hPa Calm   2.0mph /  3.2km/h 81% 0.00in /  0mm
06:25 40.6 °F /  4.8 °C 35.2 °F /  1.8 °C 30.19in /  1022.2hPa ESE 1.0mph /  1.6km/h 3.0mph /  4.8km/h 81% 0.00in /  0mm
06:30 40.7 °F /  4.8 °C 35.3 °F /  1.8 °C 30.19in /  1022.2hPa ESE 1.0mph /  1.6km/h 3.0mph /  4.8km/h 81% 0.00in /  0mm
06:35 40.9 °F /  4.9 °C 35.5 °F /  1.9 °C 30.19in /  1022.2hPa SE 1.0mph /  1.6km/h 3.0mph /  4.8km/h 81% 0.00in /  0mm
06:40 41.1 °F /  5.1 °C 35.4 °F /  1.9 °C 30.18in /  1021.9hPa ESE 1.0mph /  1.6km/h 4.0mph /  6.4km/h 80% 0.00in /  0mm
06:45 41.3 °F /  5.2 °C 35.6 °F /  2 °C 30.19in /  1022.2hPa ESE 2.0mph /  3.2km/h 5.0mph /  8km/h 80% 0.00in /  0mm
06:50 41.6 °F /  5.3 °C 35.6 °F /  2 °C 30.19in /  1022.2hPa ESE 2.0mph /  3.2km/h 4.0mph /  6.4km/h 79% 0.00in /  0mm
06:55 42.0 °F /  5.6 °C 35.6 °F /  2 °C 30.18in /  1021.9hPa ESE 2.0mph /  3.2km/h 6.0mph /  9.7km/h 78% 0.00in /  0mm
07:00 42.1 °F /  5.6 °C 35.7 °F /  2.1 °C 30.18in /  1021.9hPa ESE 2.0mph /  3.2km/h 6.0mph /  9.7km/h 78% 0.00in /  0mm
07:05 42.3 °F /  5.7 °C 35.6 °F /  2 °C 30.18in /  1021.9hPa ESE 2.0mph /  3.2km/h 6.0mph /  9.7km/h 77% 0.00in /  0mm
07:10 42.7 °F /  5.9 °C 35.3 °F /  1.8 °C 30.18in /  1021.9hPa SE 4.0mph /  6.4km/h 6.0mph /  9.7km/h 75% 0.00in /  0mm
07:15 43.0 °F /  6.1 °C 35.3 °F /  1.8 °C 30.18in /  1021.9hPa SE 1.0mph /  1.6km/h 5.0mph /  8km/h 74% 0.00in /  0mm
07:20 43.4 °F /  6.3 °C 35.7 °F /  2.1 °C 30.18in /  1021.9hPa ESE 1.0mph /  1.6km/h 6.0mph /  9.7km/h 74% 0.00in /  0mm
07:25 43.5 °F /  6.4 °C 35.4 °F /  1.9 °C 30.18in /  1021.9hPa ESE 2.0mph /  3.2km/h 6.0mph /  9.7km/h 73% 0.00in /  0mm
07:30 43.9 °F /  6.6 °C 35.8 °F /  2.1 °C 30.19in /  1022.2hPa East 2.0mph /  3.2km/h 6.0mph /  9.7km/h 73% 0.00in /  0mm
07:35 44.4 °F /  6.9 °C 35.9 °F /  2.2 °C 30.18in /  1021.9hPa ESE 1.0mph /  1.6km/h 7.0mph /  11.3km/h 72% 0.00in /  0mm
07:40 45.0 °F /  7.2 °C 36.2 °F /  2.3 °C 30.18in /  1021.9hPa SE 3.0mph /  4.8km/h 5.0mph /  8km/h 71% 0.00in /  0mm
07:45 45.4 °F /  7.4 °C 36.5 °F /  2.5 °C 30.18in /  1021.9hPa East 2.0mph /  3.2km/h 4.0mph /  6.4km/h 71% 0.00in /  0mm
07:50 45.7 °F /  7.6 °C 36.5 °F /  2.5 °C 30.18in /  1021.9hPa East 5.0mph /  8km/h 6.0mph /  9.7km/h 70% 0.00in /  0mm
07:55 46.0 °F /  7.8 °C 36.4 °F /  2.4 °C 30.18in /  1021.9hPa East 2.0mph /  3.2km/h 7.0mph /  11.3km/h 69% 0.00in /  0mm
08:00 46.5 °F /  8.1 °C 36.5 °F /  2.5 °C 30.18in /  1021.9hPa East 2.0mph /  3.2km/h 7.0mph /  11.3km/h 68% 0.00in /  0mm
08:05 46.7 °F /  8.2 °C 36.3 °F /  2.4 °C 30.18in /  1021.9hPa ESE 2.0mph /  3.2km/h 8.0mph /  12.9km/h 67% 0.00in /  0mm
08:10 47.0 °F /  8.3 °C 36.6 °F /  2.6 °C 30.19in /  1022.2hPa ESE 4.0mph /  6.4km/h 8.0mph /  12.9km/h 67% 0.00in /  0mm
08:15 47.2 °F /  8.4 °C 36.8 °F /  2.7 °C 30.19in /  1022.2hPa ENE 5.0mph /  8km/h 8.0mph /  12.9km/h 67% 0.00in /  0mm
08:20 47.3 °F /  8.5 °C 36.1 °F /  2.3 °C 30.19in /  1022.2hPa ENE 1.0mph /  1.6km/h 7.0mph /  11.3km/h 65% 0.00in /  0mm
08:25 47.6 °F /  8.7 °C 36.8 °F /  2.7 °C 30.19in /  1022.2hPa East 3.0mph /  4.8km/h 8.0mph /  12.9km/h 66% 0.00in /  0mm
08:30 48.3 °F /  9.1 °C 37.8 °F /  3.2 °C 30.19in /  1022.2hPa ESE 2.0mph /  3.2km/h 6.0mph /  9.7km/h 67% 0.00in /  0mm
08:35 48.9 °F /  9.4 °C 38.0 °F /  3.3 °C 30.18in /  1021.9hPa ESE 1.0mph /  1.6km/h 4.0mph /  6.4km/h 66% 0.00in /  0mm
08:40 49.5 °F /  9.7 °C 37.4 °F /  3 °C 30.18in /  1021.9hPa SSE 1.0mph /  1.6km/h 4.0mph /  6.4km/h 63% 0.00in /  0mm
08:45 49.7 °F /  9.8 °C 37.6 °F /  3.1 °C 30.18in /  1021.9hPa ENE 3.0mph /  4.8km/h 5.0mph /  8km/h 63% 0.00in /  0mm
08:50 49.6 °F /  9.8 °C 37.1 °F /  2.8 °C 30.18in /  1021.9hPa SE 4.0mph /  6.4km/h 8.0mph /  12.9km/h 62% 0.00in /  0mm
08:55 49.4 °F /  9.7 °C 36.5 °F /  2.5 °C 30.17in /  1021.6hPa ESE 3.0mph /  4.8km/h 9.0mph /  14.5km/h 61% 0.00in /  0mm
09:00 49.6 °F /  9.8 °C 36.7 °F /  2.6 °C 30.17in /  1021.6hPa SE 4.0mph /  6.4km/h 9.0mph /  14.5km/h 61% 0.00in /  0mm
09:05 49.8 °F /  9.9 °C 36.5 °F /  2.5 °C 30.17in /  1021.6hPa SE 5.0mph /  8km/h 11.0mph /  17.7km/h 60% 0.00in /  0mm
09:10 50.1 °F /  10.1 °C 36.7 °F /  2.6 °C 30.17in /  1021.6hPa SE 4.0mph /  6.4km/h 11.0mph /  17.7km/h 60% 0.00in /  0mm
09:15 50.3 °F /  10.2 °C 36.9 °F /  2.7 °C 30.16in /  1021.2hPa SE 3.0mph /  4.8km/h 10.0mph /  16.1km/h 60% 0.00in /  0mm
09:20 50.2 °F /  10.1 °C 36.8 °F /  2.7 °C 30.16in /  1021.2hPa ESE 3.0mph /  4.8km/h 7.0mph /  11.3km/h 60% 0.00in /  0mm
09:25 50.4 °F /  10.2 °C 37.0 °F /  2.8 °C 30.16in /  1021.2hPa ESE 4.0mph /  6.4km/h 7.0mph /  11.3km/h 60% 0.00in /  0mm
09:30 50.5 °F /  10.3 °C 36.7 °F /  2.6 °C 30.16in /  1021.2hPa ESE 3.0mph /  4.8km/h 8.0mph /  12.9km/h 59% 0.00in /  0mm
09:35 50.7 °F /  10.4 °C 36.5 °F /  2.5 °C 30.16in /  1021.2hPa ESE 5.0mph /  8km/h 9.0mph /  14.5km/h 58% 0.00in /  0mm
09:40 50.7 °F /  10.4 °C 36.0 °F /  2.2 °C 30.16in /  1021.2hPa SSE 3.0mph /  4.8km/h 8.0mph /  12.9km/h 57% 0.00in /  0mm
09:45 50.9 °F /  10.5 °C 35.7 °F /  2.1 °C 30.16in /  1021.2hPa East 6.0mph /  9.7km/h 6.0mph /  9.7km/h 56% 0.00in /  0mm
09:50 51.1 °F /  10.6 °C 35.9 °F /  2.2 °C 30.16in /  1021.2hPa ESE 3.0mph /  4.8km/h 9.0mph /  14.5km/h 56% 0.00in /  0mm
09:55 51.2 °F /  10.7 °C 35.6 °F /  2 °C 30.16in /  1021.2hPa ESE 3.0mph /  4.8km/h 9.0mph /  14.5km/h 55% 0.00in /  0mm
10:00 51.4 °F /  10.8 °C 36.2 °F /  2.3 °C 30.16in /  1021.2hPa SE 3.0mph /  4.8km/h 7.0mph /  11.3km/h 56% 0.00in /  0mm
10:05 51.5 °F /  10.8 °C 35.4 °F /  1.9 °C 30.16in /  1021.2hPa SE 3.0mph /  4.8km/h 7.0mph /  11.3km/h 54% 0.00in /  0mm
10:10 51.7 °F /  10.9 °C 36.0 °F /  2.2 °C 30.15in /  1020.9hPa Calm   8.0mph /  12.9km/h 55% 0.00in /  0mm
10:15 51.7 °F /  10.9 °C 35.1 °F /  1.7 °C 30.15in /  1020.9hPa Calm   7.0mph /  11.3km/h 53% 0.00in /  0mm
10:20 51.8 °F /  11 °C 35.2 °F /  1.8 °C 30.15in /  1020.9hPa ESE 2.0mph /  3.2km/h 7.0mph /  11.3km/h 53% 0.00in /  0mm
10:25 51.8 °F /  11 °C 34.7 °F /  1.5 °C 30.15in /  1020.9hPa SE 2.0mph /  3.2km/h 7.0mph /  11.3km/h 52% 0.00in /  0mm
10:30 52.0 °F /  11.1 °C 34.9 °F /  1.6 °C 30.15in /  1020.9hPa SE 2.0mph /  3.2km/h 7.0mph /  11.3km/h 52% 0.00in /  0mm
10:35 52.1 °F /  11.2 °C 35.9 °F /  2.2 °C 30.14in /  1020.5hPa SSE 4.0mph /  6.4km/h 6.0mph /  9.7km/h 54% 0.00in /  0mm
10:40 52.1 °F /  11.2 °C 34.5 °F /  1.4 °C 30.14in /  1020.5hPa SSE 3.0mph /  4.8km/h 8.0mph /  12.9km/h 51% 0.00in /  0mm
10:45 52.3 °F /  11.3 °C 33.7 °F /  0.9 °C 30.14in /  1020.5hPa SSE 3.0mph /  4.8km/h 8.0mph /  12.9km/h 49% 0.00in /  0mm
10:50 52.3 °F /  11.3 °C 33.2 °F /  0.7 °C 30.15in /  1020.9hPa SE 4.0mph /  6.4km/h 9.0mph /  14.5km/h 48% 0.00in /  0mm
10:55 52.1 °F /  11.2 °C 33.0 °F /  0.6 °C 30.15in /  1020.9hPa SSE 5.0mph /  8km/h 9.0mph /  14.5km/h 48% 0.00in /  0mm
11:00 52.2 °F /  11.2 °C 32.6 °F /  0.3 °C 30.14in /  1020.5hPa SSE 3.0mph /  4.8km/h 8.0mph /  12.9km/h 47% 0.00in /  0mm
11:05 52.4 °F /  11.3 °C 33.3 °F /  0.7 °C 30.14in /  1020.5hPa SSE 3.0mph /  4.8km/h 7.0mph /  11.3km/h 48% 0.00in /  0mm
11:10 52.6 °F /  11.4 °C 32.4 °F /  0.2 °C 30.14in /  1020.5hPa South 7.0mph /  11.3km/h 8.0mph /  12.9km/h 46% 0.00in /  0mm
11:15 52.6 °F /  11.4 °C 32.4 °F /  0.2 °C 30.14in /  1020.5hPa SE 4.0mph /  6.4km/h 11.0mph /  17.7km/h 46% 0.00in /  0mm
11:20 52.6 °F /  11.4 °C 32.4 °F /  0.2 °C 30.14in /  1020.5hPa SSE 4.0mph /  6.4km/h 11.0mph /  17.7km/h 46% 0.00in /  0mm
11:25 52.7 °F /  11.5 °C 32.5 °F /  0.3 °C 30.14in /  1020.5hPa SSE 4.0mph /  6.4km/h 10.0mph /  16.1km/h 46% 0.00in /  0mm
11:30 52.6 °F /  11.4 °C 32.4 °F /  0.2 °C 30.14in /  1020.5hPa SSE 5.0mph /  8km/h 9.0mph /  14.5km/h 46% 0.00in /  0mm
11:35 52.8 °F /  11.6 °C 32.0 °F /  0 °C 30.14in /  1020.5hPa SSE 8.0mph /  12.9km/h 9.0mph /  14.5km/h 45% 0.00in /  0mm
11:40 52.9 °F /  11.6 °C 32.7 °F /  0.4 °C 30.14in /  1020.5hPa ESE 2.0mph /  3.2km/h 8.0mph /  12.9km/h 46% 0.00in /  0mm
11:45 53.0 °F /  11.7 °C 32.8 °F /  0.4 °C 30.13in /  1020.2hPa SE 8.0mph /  12.9km/h 8.0mph /  12.9km/h 46% 0.00in /  0mm
11:50 53.1 °F /  11.7 °C 32.8 °F /  0.4 °C 30.13in /  1020.2hPa SE 4.0mph /  6.4km/h 9.0mph /  14.5km/h 46% 0.00in /  0mm
11:55 53.2 °F /  11.8 °C 32.9 °F /  0.5 °C 30.13in /  1020.2hPa SE 4.0mph /  6.4km/h 9.0mph /  14.5km/h 46% 0.00in /  0mm
12:00 53.2 °F /  11.8 °C 34.5 °F /  1.4 °C 30.12in /  1019.9hPa ESE 5.0mph /  8km/h 7.0mph /  11.3km/h 49% 0.00in /  0mm
12:05 53.1 °F /  11.7 °C 32.8 °F /  0.4 °C 30.12in /  1019.9hPa ESE 2.0mph /  3.2km/h 8.0mph /  12.9km/h 46% 0.00in /  0mm
12:10 53.2 °F /  11.8 °C 35.0 °F /  1.7 °C 30.11in /  1019.5hPa SSE 2.0mph /  3.2km/h 6.0mph /  9.7km/h 50% 0.00in /  0mm
12:15 53.4 °F /  11.9 °C 35.2 °F /  1.8 °C 30.11in /  1019.5hPa ESE 4.0mph /  6.4km/h 7.0mph /  11.3km/h 50% 0.00in /  0mm
12:20 52.9 °F /  11.6 °C 37.2 °F /  2.9 °C 30.11in /  1019.5hPa ESE 3.0mph /  4.8km/h 7.0mph /  11.3km/h 55% 0.00in /  0mm
12:25 52.2 °F /  11.2 °C 37.4 °F /  3 °C 30.11in /  1019.5hPa ESE 3.0mph /  4.8km/h 6.0mph /  9.7km/h 57% 0.00in /  0mm
12:30 51.9 °F /  11.1 °C 38.9 °F /  3.8 °C 30.11in /  1019.5hPa ESE 2.0mph /  3.2km/h 5.0mph /  8km/h 61% 0.00in /  0mm
12:35 51.5 °F /  10.8 °C 39.3 °F /  4.1 °C 30.11in /  1019.5hPa ESE 2.0mph /  3.2km/h 5.0mph /  8km/h 63% 0.00in /  0mm
12:40 51.1 °F /  10.6 °C 40.1 °F /  4.5 °C 30.11in /  1019.5hPa ESE 2.0mph /  3.2km/h 6.0mph /  9.7km/h 66% 0.01in /  0.25mm
12:44 50.7 °F /  10.4 °C 40.9 °F /  4.9 °C 30.10in /  1019.2hPa ENE 1.0mph /  1.6km/h 5.0mph /  8km/h 69% 0.01in /  0.25mm
12:50 50.4 °F /  10.2 °C 41.3 °F /  5.2 °C 30.09in /  1018.8hPa East 2.0mph /  3.2km/h 5.0mph /  8km/h 71% 0.01in /  0.25mm
12:55 50.2 °F /  10.1 °C 41.9 °F /  5.5 °C 30.09in /  1018.8hPa NE 2.0mph /  3.2km/h 5.0mph /  8km/h 73% 0.01in /  0.25mm
13:00 50.5 °F /  10.3 °C 42.2 °F /  5.7 °C 30.09in /  1018.8hPa NE 3.0mph /  4.8km/h 4.0mph /  6.4km/h 73% 0.01in /  0.25mm
13:05 50.6 °F /  10.3 °C 41.9 °F /  5.5 °C 30.08in /  1018.5hPa NE 2.0mph /  3.2km/h 7.0mph /  11.3km/h 72% 0.01in /  0.25mm
13:10 51.0 °F /  10.6 °C 43.0 °F /  6.1 °C 30.08in /  1018.5hPa ENE 1.0mph /  1.6km/h 8.0mph /  12.9km/h 74% 0.01in /  0.25mm
13:15 51.0 °F /  10.6 °C 42.6 °F /  5.9 °C 30.08in /  1018.5hPa East 2.0mph /  3.2km/h 8.0mph /  12.9km/h 73% 0.01in /  0.25mm
13:20 50.7 °F /  10.4 °C 42.4 °F /  5.8 °C 30.08in /  1018.5hPa ENE 4.0mph /  6.4km/h 8.0mph /  12.9km/h 73% 0.01in /  0.25mm
13:25 50.6 °F /  10.3 °C 43.0 °F /  6.1 °C 30.08in /  1018.5hPa Calm   9.0mph /  14.5km/h 75% 0.01in /  0.25mm
13:30 50.8 °F /  10.4 °C 43.5 °F /  6.4 °C 30.09in /  1018.8hPa East 3.0mph /  4.8km/h 9.0mph /  14.5km/h 76% 0.01in /  0.25mm
13:35 50.8 °F /  10.4 °C 43.2 °F /  6.2 °C 30.09in /  1018.8hPa ESE 3.0mph /  4.8km/h 8.0mph /  12.9km/h 75% 0.01in /  0.25mm
13:40 50.7 °F /  10.4 °C 43.8 °F /  6.6 °C 30.09in /  1018.8hPa ESE 3.0mph /  4.8km/h 8.0mph /  12.9km/h 77% 0.00in /  0mm
13:45 50.7 °F /  10.4 °C 43.4 °F /  6.3 °C 30.09in /  1018.8hPa East 6.0mph /  9.7km/h 6.0mph /  9.7km/h 76% 0.00in /  0mm
13:49 50.9 °F /  10.5 °C 43.9 °F /  6.6 °C 30.09in /  1018.8hPa ESE 2.0mph /  3.2km/h 6.0mph /  9.7km/h 77% 0.00in /  0mm
13:54 51.0 °F /  10.6 °C 44.0 °F /  6.7 °C 30.09in /  1018.8hPa ESE 2.0mph /  3.2km/h 9.0mph /  14.5km/h 77% 0.00in /  0mm
14:00 51.1 °F /  10.6 °C 44.1 °F /  6.7 °C 30.08in /  1018.5hPa East 2.0mph /  3.2km/h 9.0mph /  14.5km/h 77% 0.00in /  0mm
14:05 51.2 °F /  10.7 °C 44.6 °F /  7 °C 30.08in /  1018.5hPa ENE 2.0mph /  3.2km/h 5.0mph /  8km/h 78% 0.00in /  0mm
14:10 50.9 °F /  10.5 °C 44.3 °F /  6.8 °C 30.08in /  1018.5hPa NE 2.0mph /  3.2km/h 4.0mph /  6.4km/h 78% 0.01in /  0.25mm
14:15 50.8 °F /  10.4 °C 44.2 °F /  6.8 °C 30.08in /  1018.5hPa NE 3.0mph /  4.8km/h 5.0mph /  8km/h 78% 0.01in /  0.25mm
14:20 50.6 °F /  10.3 °C 44.3 °F /  6.8 °C 30.08in /  1018.5hPa ENE 3.0mph /  4.8km/h 7.0mph /  11.3km/h 79% 0.01in /  0.25mm
14:24 50.5 °F /  10.3 °C 44.2 °F /  6.8 °C 30.08in /  1018.5hPa ENE 4.0mph /  6.4km/h 5.0mph /  8km/h 79% 0.01in /  0.25mm
14:30 50.4 °F /  10.2 °C 44.1 °F /  6.7 °C 30.08in /  1018.5hPa NE 4.0mph /  6.4km/h 5.0mph /  8km/h 79% 0.02in /  0.51mm
14:35 50.2 °F /  10.1 °C 43.9 °F /  6.6 °C 30.08in /  1018.5hPa Calm   6.0mph /  9.7km/h 79% 0.02in /  0.51mm
14:40 50.4 °F /  10.2 °C 44.5 °F /  6.9 °C 30.08in /  1018.5hPa NE 1.0mph /  1.6km/h 5.0mph /  8km/h 80% 0.02in /  0.51mm
14:45 50.5 °F /  10.3 °C 44.2 °F /  6.8 °C 30.08in /  1018.5hPa SE 2.0mph /  3.2km/h 8.0mph /  12.9km/h 79% 0.02in /  0.51mm
14:50 50.4 °F /  10.2 °C 42.4 °F /  5.8 °C 30.07in /  1018.2hPa SE 1.0mph /  1.6km/h 11.0mph /  17.7km/h 74% 0.02in /  0.51mm
14:54 50.5 °F /  10.3 °C 42.9 °F /  6.1 °C 30.07in /  1018.2hPa SE 3.0mph /  4.8km/h 11.0mph /  17.7km/h 75% 0.02in /  0.51mm
15:00 50.1 °F /  10.1 °C 42.1 °F /  5.6 °C 30.07in /  1018.2hPa SE 2.0mph /  3.2km/h 8.0mph /  12.9km/h 74% 0.02in /  0.51mm
15:05 49.9 °F /  9.9 °C 42.3 °F /  5.7 °C 30.07in /  1018.2hPa SE 3.0mph /  4.8km/h 8.0mph /  12.9km/h 75% 0.02in /  0.51mm
15:10 49.9 °F /  9.9 °C 42.3 °F /  5.7 °C 30.06in /  1017.8hPa ESE 4.0mph /  6.4km/h 5.0mph /  8km/h 75% 0.01in /  0.25mm
15:15 49.7 °F /  9.8 °C 41.7 °F /  5.4 °C 30.06in /  1017.8hPa SE 2.0mph /  3.2km/h 8.0mph /  12.9km/h 74% 0.01in /  0.25mm
15:19 49.6 °F /  9.8 °C 41.7 °F /  5.4 °C 30.06in /  1017.8hPa ESE 3.0mph /  4.8km/h 8.0mph /  12.9km/h 74% 0.01in /  0.25mm
15:25 49.4 °F /  9.7 °C 41.1 °F /  5.1 °C 30.06in /  1017.8hPa ESE 4.0mph /  6.4km/h 11.0mph /  17.7km/h 73% 0.01in /  0.25mm
15:30 49.3 °F /  9.6 °C 41.7 °F /  5.4 °C 30.05in /  1017.5hPa ESE 4.0mph /  6.4km/h 11.0mph /  17.7km/h 75% 0.00in /  0mm
15:35 49.3 °F /  9.6 °C 42.1 °F /  5.6 °C 30.04in /  1017.2hPa ESE 4.0mph /  6.4km/h 10.0mph /  16.1km/h 76% 0.00in /  0mm
15:39 49.3 °F /  9.6 °C 42.1 °F /  5.6 °C 30.04in /  1017.2hPa East 2.0mph /  3.2km/h 11.0mph /  17.7km/h 76% 0.00in /  0mm
15:44 49.1 °F /  9.5 °C 41.9 °F /  5.5 °C 30.04in /  1017.2hPa East 10.0mph /  16.1km/h 10.0mph /  16.1km/h 76% 0.00in /  0mm
15:49 48.8 °F /  9.3 °C 41.9 °F /  5.5 °C 30.04in /  1017.2hPa SSW 3.0mph /  4.8km/h 10.0mph /  16.1km/h 77% 0.00in /  0mm
15:54 48.5 °F /  9.2 °C 41.6 °F /  5.3 °C 30.04in /  1017.2hPa SE 5.0mph /  8km/h 11.0mph /  17.7km/h 77% 0.00in /  0mm
16:00 48.2 °F /  9 °C 41.7 °F /  5.4 °C 30.04in /  1017.2hPa East 3.0mph /  4.8km/h 10.0mph /  16.1km/h 78% 0.00in /  0mm
16:05 48.0 °F /  8.9 °C 41.8 °F /  5.4 °C 30.03in /  1016.8hPa ESE 3.0mph /  4.8km/h 8.0mph /  12.9km/h 79% 0.00in /  0mm
16:10 47.6 °F /  8.7 °C 41.4 °F /  5.2 °C 30.03in /  1016.8hPa East 6.0mph /  9.7km/h 11.0mph /  17.7km/h 79% 0.01in /  0.25mm
16:15 47.3 °F /  8.5 °C 41.4 °F /  5.2 °C 30.03in /  1016.8hPa East 2.0mph /  3.2km/h 9.0mph /  14.5km/h 80% 0.01in /  0.25mm
16:20 47.0 °F /  8.3 °C 41.5 °F /  5.3 °C 30.02in /  1016.5hPa East 2.0mph /  3.2km/h 7.0mph /  11.3km/h 81% 0.02in /  0.51mm
16:25 46.8 °F /  8.2 °C 41.6 °F /  5.3 °C 30.02in /  1016.5hPa East 3.0mph /  4.8km/h 9.0mph /  14.5km/h 82% 0.02in /  0.51mm
16:29 46.8 °F /  8.2 °C 42.2 °F /  5.7 °C 30.02in /  1016.5hPa East 3.0mph /  4.8km/h 9.0mph /  14.5km/h 84% 0.03in /  0.76mm
16:34 46.6 °F /  8.1 °C 42.0 °F /  5.6 °C 30.01in /  1016.1hPa East 3.0mph /  4.8km/h 7.0mph /  11.3km/h 84% 0.04in /  1.02mm
16:40 46.5 °F /  8.1 °C 42.2 °F /  5.7 °C 30.00in /  1015.8hPa ENE 3.0mph /  4.8km/h 7.0mph /  11.3km/h 85% 0.05in /  1.27mm
16:45 46.4 °F /  8 °C 42.4 °F /  5.8 °C 30.00in /  1015.8hPa ENE 4.0mph /  6.4km/h 11.0mph /  17.7km/h 86% 0.05in /  1.27mm
16:49 46.3 °F /  7.9 °C 42.3 °F /  5.7 °C 30.00in /  1015.8hPa ENE 2.0mph /  3.2km/h 7.0mph /  11.3km/h 86% 0.06in /  1.52mm
16:54 46.2 °F /  7.9 °C 42.2 °F /  5.7 °C 30.00in /  1015.8hPa East 5.0mph /  8km/h 9.0mph /  14.5km/h 86% 0.06in /  1.52mm
17:00 46.2 °F /  7.9 °C 42.5 °F /  5.8 °C 30.00in /  1015.8hPa NE 2.0mph /  3.2km/h 8.0mph /  12.9km/h 87% 0.07in /  1.78mm
17:04 46.1 °F /  7.8 °C 42.4 °F /  5.8 °C 30.00in /  1015.8hPa ENE 4.0mph /  6.4km/h 8.0mph /  12.9km/h 87% 0.07in /  1.78mm
17:09 46.1 °F /  7.8 °C 42.4 °F /  5.8 °C 30.00in /  1015.8hPa ENE 5.0mph /  8km/h 7.0mph /  11.3km/h 87% 0.07in /  1.78mm
17:15 46.0 °F /  7.8 °C 42.3 °F /  5.7 °C 30.00in /  1015.8hPa East 7.0mph /  11.3km/h 9.0mph /  14.5km/h 87% 0.07in /  1.78mm
17:20 46.0 °F /  7.8 °C 42.3 °F /  5.7 °C 30.00in /  1015.8hPa East 3.0mph /  4.8km/h 8.0mph /  12.9km/h 87% 0.06in /  1.52mm
17:24 45.9 °F /  7.7 °C 42.2 °F /  5.7 °C 30.00in /  1015.8hPa ENE 4.0mph /  6.4km/h 8.0mph /  12.9km/h 87% 0.06in /  1.52mm
17:30 46.0 °F /  7.8 °C 42.6 °F /  5.9 °C 30.00in /  1015.8hPa ENE 4.0mph /  6.4km/h 8.0mph /  12.9km/h 88% 0.05in /  1.27mm
17:35 46.1 °F /  7.8 °C 42.7 °F /  5.9 °C 30.00in /  1015.8hPa ENE 4.0mph /  6.4km/h 8.0mph /  12.9km/h 88% 0.05in /  1.27mm
17:40 46.2 °F /  7.9 °C 42.8 °F /  6 °C 29.99in /  1015.5hPa ENE 4.0mph /  6.4km/h 9.0mph /  14.5km/h 88% 0.04in /  1.02mm
17:45 46.2 °F /  7.9 °C 42.8 °F /  6 °C 29.99in /  1015.5hPa ENE 4.0mph /  6.4km/h 9.0mph /  14.5km/h 88% 0.04in /  1.02mm
17:50 46.2 °F /  7.9 °C 42.8 °F /  6 °C 30.00in /  1015.8hPa NE 4.0mph /  6.4km/h 9.0mph /  14.5km/h 88% 0.03in /  0.76mm
17:54 46.3 °F /  7.9 °C 42.9 °F /  6.1 °C 29.99in /  1015.5hPa NE 3.0mph /  4.8km/h 8.0mph /  12.9km/h 88% 0.04in /  1.02mm
17:59 46.2 °F /  7.9 °C 42.8 °F /  6 °C 29.99in /  1015.5hPa NE 5.0mph /  8km/h 9.0mph /  14.5km/h 88% 0.03in /  0.76mm
18:04 46.2 °F /  7.9 °C 42.8 °F /  6 °C 29.99in /  1015.5hPa ENE 5.0mph /  8km/h 10.0mph /  16.1km/h 88% 0.03in /  0.76mm
18:09 46.1 °F /  7.8 °C 42.7 °F /  5.9 °C 29.99in /  1015.5hPa NNE 2.0mph /  3.2km/h 9.0mph /  14.5km/h 88% 0.02in /  0.51mm
18:14 46.0 °F /  7.8 °C 42.9 °F /  6.1 °C 29.98in /  1015.1hPa NE 2.0mph /  3.2km/h 10.0mph /  16.1km/h 89% 0.02in /  0.51mm
18:19 46.0 °F /  7.8 °C 42.6 °F /  5.9 °C 29.99in /  1015.5hPa NE 3.0mph /  4.8km/h 8.0mph /  12.9km/h 88% 0.02in /  0.51mm
18:24 45.9 °F /  7.7 °C 42.8 °F /  6 °C 29.99in /  1015.5hPa NE 5.0mph /  8km/h 10.0mph /  16.1km/h 89% 0.02in /  0.51mm
18:29 45.9 °F /  7.7 °C 42.8 °F /  6 °C 29.98in /  1015.1hPa NE 5.0mph /  8km/h 10.0mph /  16.1km/h 89% 0.02in /  0.51mm
18:34 45.9 °F /  7.7 °C 42.8 °F /  6 °C 29.98in /  1015.1hPa NE 5.0mph /  8km/h 11.0mph /  17.7km/h 89% 0.02in /  0.51mm
18:39 45.8 °F /  7.7 °C 42.7 °F /  5.9 °C 29.98in /  1015.1hPa NE 5.0mph /  8km/h 11.0mph /  17.7km/h 89% 0.02in /  0.51mm
18:45 45.9 °F /  7.7 °C 42.8 °F /  6 °C 29.98in /  1015.1hPa NE 6.0mph /  9.7km/h 8.0mph /  12.9km/h 89% 0.03in /  0.76mm
18:50 45.8 °F /  7.7 °C 42.7 °F /  5.9 °C 29.96in /  1014.4hPa NE 6.0mph /  9.7km/h 10.0mph /  16.1km/h 89% 0.03in /  0.76mm
18:54 45.7 °F /  7.6 °C 42.6 °F /  5.9 °C 29.97in /  1014.8hPa NE 6.0mph /  9.7km/h 10.0mph /  16.1km/h 89% 0.03in /  0.76mm
18:59 45.7 °F /  7.6 °C 42.6 °F /  5.9 °C 29.99in /  1015.5hPa NE 5.0mph /  8km/h 10.0mph /  16.1km/h 89% 0.03in /  0.76mm
19:04 45.7 °F /  7.6 °C 42.9 °F /  6.1 °C 29.98in /  1015.1hPa NE 2.0mph /  3.2km/h 9.0mph /  14.5km/h 90% 0.04in /  1.02mm
19:09 45.7 °F /  7.6 °C 42.9 °F /  6.1 °C 29.97in /  1014.8hPa Calm   8.0mph /  12.9km/h 90% 0.06in /  1.52mm
19:14 45.6 °F /  7.6 °C 42.8 °F /  6 °C 29.96in /  1014.4hPa NE 7.0mph /  11.3km/h 9.0mph /  14.5km/h 90% 0.07in /  1.78mm
19:19 45.5 °F /  7.5 °C 42.7 °F /  5.9 °C 29.96in /  1014.4hPa ENE 9.0mph /  14.5km/h 10.0mph /  16.1km/h 90% 0.08in /  2.03mm
19:24 45.4 °F /  7.4 °C 42.6 °F /  5.9 °C 29.96in /  1014.4hPa NE 6.0mph /  9.7km/h 11.0mph /  17.7km/h 90% 0.08in /  2.03mm
19:29 45.4 °F /  7.4 °C 42.6 °F /  5.9 °C 29.94in /  1013.8hPa NE 7.0mph /  11.3km/h 12.0mph /  19.3km/h 90% 0.10in /  2.54mm
19:34 45.4 °F /  7.4 °C 42.6 °F /  5.9 °C 29.93in /  1013.4hPa ENE 11.0mph /  17.7km/h 13.0mph /  20.9km/h 90% 0.09in /  2.29mm
19:39 45.4 °F /  7.4 °C 42.6 °F /  5.9 °C 29.93in /  1013.4hPa ENE 7.0mph /  11.3km/h 13.0mph /  20.9km/h 90% 0.10in /  2.54mm
19:44 45.4 °F /  7.4 °C 42.9 °F /  6.1 °C 29.93in /  1013.4hPa North 5.0mph /  8km/h 13.0mph /  20.9km/h 91% 0.09in /  2.29mm
19:49 45.3 °F /  7.4 °C 42.8 °F /  6 °C 29.93in /  1013.4hPa NNE 7.0mph /  11.3km/h 14.0mph /  22.5km/h 91% 0.09in /  2.29mm
19:54 45.3 °F /  7.4 °C 42.8 °F /  6 °C 29.94in /  1013.8hPa NE 5.0mph /  8km/h 14.0mph /  22.5km/h 91% 0.09in /  2.29mm
19:59 45.3 °F /  7.4 °C 42.8 °F /  6 °C 29.94in /  1013.8hPa NE 4.0mph /  6.4km/h 10.0mph /  16.1km/h 91% 0.09in /  2.29mm
20:04 45.4 °F /  7.4 °C 42.9 °F /  6.1 °C 29.93in /  1013.4hPa NE 4.0mph /  6.4km/h 10.0mph /  16.1km/h 91% 0.09in /  2.29mm
20:09 45.4 °F /  7.4 °C 42.9 °F /  6.1 °C 29.93in /  1013.4hPa NE 4.0mph /  6.4km/h 9.0mph /  14.5km/h 91% 0.08in /  2.03mm
20:15 45.4 °F /  7.4 °C 42.9 °F /  6.1 °C 29.93in /  1013.4hPa NE 5.0mph /  8km/h 11.0mph /  17.7km/h 91% 0.08in /  2.03mm
20:20 45.4 °F /  7.4 °C 42.9 °F /  6.1 °C 29.93in /  1013.4hPa NE 4.0mph /  6.4km/h 11.0mph /  17.7km/h 91% 0.08in /  2.03mm
20:24 45.4 °F /  7.4 °C 42.9 °F /  6.1 °C 29.92in /  1013.1hPa NE 4.0mph /  6.4km/h 9.0mph /  14.5km/h 91% 0.08in /  2.03mm
20:29 45.4 °F /  7.4 °C 42.9 °F /  6.1 °C 29.92in /  1013.1hPa ENE 3.0mph /  4.8km/h 10.0mph /  16.1km/h 91% 0.07in /  1.78mm
20:34 45.4 °F /  7.4 °C 42.9 °F /  6.1 °C 29.92in /  1013.1hPa NNE 5.0mph /  8km/h 8.0mph /  12.9km/h 91% 0.08in /  2.03mm
20:39 45.3 °F /  7.4 °C 42.8 °F /  6 °C 29.91in /  1012.8hPa ENE 3.0mph /  4.8km/h 10.0mph /  16.1km/h 91% 0.07in /  1.78mm
20:44 45.4 °F /  7.4 °C 43.2 °F /  6.2 °C 29.91in /  1012.8hPa NE 6.0mph /  9.7km/h 10.0mph /  16.1km/h 92% 0.07in /  1.78mm
20:49 45.4 °F /  7.4 °C 43.2 °F /  6.2 °C 29.91in /  1012.8hPa ENE 4.0mph /  6.4km/h 10.0mph /  16.1km/h 92% 0.07in /  1.78mm
20:54 45.5 °F /  7.5 °C 43.3 °F /  6.3 °C 29.91in /  1012.8hPa NE 3.0mph /  4.8km/h 9.0mph /  14.5km/h 92% 0.06in /  1.52mm
20:59 45.4 °F /  7.4 °C 43.2 °F /  6.2 °C 29.91in /  1012.8hPa NE 4.0mph /  6.4km/h 9.0mph /  14.5km/h 92% 0.06in /  1.52mm
21:04 45.4 °F /  7.4 °C 43.2 °F /  6.2 °C 29.91in /  1012.8hPa NE 4.0mph /  6.4km/h 9.0mph /  14.5km/h 92% 0.05in /  1.27mm
21:09 45.5 °F /  7.5 °C 43.3 °F /  6.3 °C 29.91in /  1012.8hPa NE 4.0mph /  6.4km/h 9.0mph /  14.5km/h 92% 0.04in /  1.02mm
21:15 45.6 °F /  7.6 °C 43.4 °F /  6.3 °C 29.91in /  1012.8hPa NE 4.0mph /  6.4km/h 9.0mph /  14.5km/h 92% 0.03in /  0.76mm
21:20 45.7 °F /  7.6 °C 43.5 °F /  6.4 °C 29.91in /  1012.8hPa NE 9.0mph /  14.5km/h 9.0mph /  14.5km/h 92% 0.02in /  0.51mm
21:25 45.7 °F /  7.6 °C 43.5 °F /  6.4 °C 29.90in /  1012.4hPa NE 2.0mph /  3.2km/h 10.0mph /  16.1km/h 92% 0.01in /  0.25mm
21:29 45.7 °F /  7.6 °C 43.5 °F /  6.4 °C 29.90in /  1012.4hPa NE 5.0mph /  8km/h 10.0mph /  16.1km/h 92% 0.01in /  0.25mm
21:34 45.7 °F /  7.6 °C 43.5 °F /  6.4 °C 29.90in /  1012.4hPa NE 6.0mph /  9.7km/h 11.0mph /  17.7km/h 92% 0.00in /  0mm
21:39 45.8 °F /  7.7 °C 43.6 °F /  6.4 °C 29.89in /  1012.1hPa NE 6.0mph /  9.7km/h 12.0mph /  19.3km/h 92% 0.00in /  0mm
21:44 45.9 °F /  7.7 °C 43.7 °F /  6.5 °C 29.89in /  1012.1hPa East 6.0mph /  9.7km/h 13.0mph /  20.9km/h 92% 0.00in /  0mm
21:49 45.9 °F /  7.7 °C 43.7 °F /  6.5 °C 29.89in /  1012.1hPa NE 4.0mph /  6.4km/h 9.0mph /  14.5km/h 92% 0.00in /  0mm
21:54 46.0 °F /  7.8 °C 43.8 °F /  6.6 °C 29.89in /  1012.1hPa East 9.0mph /  14.5km/h 13.0mph /  20.9km/h 92% 0.00in /  0mm
21:59 46.0 °F /  7.8 °C 43.8 °F /  6.6 °C 29.89in /  1012.1hPa NE 6.0mph /  9.7km/h 13.0mph /  20.9km/h 92% 0.00in /  0mm
22:04 46.0 °F /  7.8 °C 43.8 °F /  6.6 °C 29.89in /  1012.1hPa NE 5.0mph /  8km/h 12.0mph /  19.3km/h 92% 0.00in /  0mm
22:09 46.1 °F /  7.8 °C 43.9 °F /  6.6 °C 29.89in /  1012.1hPa NE 5.0mph /  8km/h 12.0mph /  19.3km/h 92% 0.00in /  0mm
22:14 46.1 °F /  7.8 °C 43.9 °F /  6.6 °C 29.88in /  1011.7hPa NE 6.0mph /  9.7km/h 10.0mph /  16.1km/h 92% 0.00in /  0mm
22:19 46.2 °F /  7.9 °C 44.0 °F /  6.7 °C 29.88in /  1011.7hPa NE 2.0mph /  3.2km/h 10.0mph /  16.1km/h 92% 0.00in /  0mm
22:24 46.2 °F /  7.9 °C 44.0 °F /  6.7 °C 29.88in /  1011.7hPa NE 3.0mph /  4.8km/h 10.0mph /  16.1km/h 92% 0.00in /  0mm
22:29 46.3 °F /  7.9 °C 44.1 °F /  6.7 °C 29.88in /  1011.7hPa NE 4.0mph /  6.4km/h 10.0mph /  16.1km/h 92% 0.00in /  0mm
22:34 46.3 °F /  7.9 °C 44.1 °F /  6.7 °C 29.88in /  1011.7hPa NE 4.0mph /  6.4km/h 9.0mph /  14.5km/h 92% 0.00in /  0mm
22:39 46.3 °F /  7.9 °C 44.1 °F /  6.7 °C 29.88in /  1011.7hPa ENE 3.0mph /  4.8km/h 8.0mph /  12.9km/h 92% 0.01in /  0.25mm
22:44 46.4 °F /  8 °C 44.2 °F /  6.8 °C 29.87in /  1011.4hPa ENE 7.0mph /  11.3km/h 8.0mph /  12.9km/h 92% 0.01in /  0.25mm
22:49 46.4 °F /  8 °C 44.2 °F /  6.8 °C 29.87in /  1011.4hPa ENE 7.0mph /  11.3km/h 9.0mph /  14.5km/h 92% 0.01in /  0.25mm
22:54 46.4 °F /  8 °C 44.2 °F /  6.8 °C 29.87in /  1011.4hPa ENE 3.0mph /  4.8km/h 9.0mph /  14.5km/h 92% 0.01in /  0.25mm
22:59 46.4 °F /  8 °C 44.2 °F /  6.8 °C 29.87in /  1011.4hPa ENE 5.0mph /  8km/h 10.0mph /  16.1km/h 92% 0.02in /  0.51mm
23:04 46.4 °F /  8 °C 44.2 °F /  6.8 °C 29.86in /  1011.1hPa ENE 5.0mph /  8km/h 10.0mph /  16.1km/h 92% 0.02in /  0.51mm
23:09 46.4 °F /  8 °C 44.2 °F /  6.8 °C 29.86in /  1011.1hPa ENE 4.0mph /  6.4km/h 9.0mph /  14.5km/h 92% 0.02in /  0.51mm
23:14 46.4 °F /  8 °C 44.2 °F /  6.8 °C 29.86in /  1011.1hPa NE 3.0mph /  4.8km/h 8.0mph /  12.9km/h 92% 0.02in /  0.51mm
23:19 46.4 °F /  8 °C 44.2 °F /  6.8 °C 29.86in /  1011.1hPa NE 2.0mph /  3.2km/h 5.0mph /  8km/h 92% 0.02in /  0.51mm
23:25 46.4 °F /  8 °C 44.2 °F /  6.8 °C 29.86in /  1011.1hPa NE 2.0mph /  3.2km/h 5.0mph /  8km/h 92% 0.02in /  0.51mm
23:29 46.4 °F /  8 °C 44.2 °F /  6.8 °C 29.86in /  1011.1hPa NE 2.0mph /  3.2km/h 7.0mph /  11.3km/h 92% 0.02in /  0.51mm
23:34 46.3 °F /  7.9 °C 44.1 °F /  6.7 °C 29.86in /  1011.1hPa NE 2.0mph /  3.2km/h 7.0mph /  11.3km/h 92% 0.02in /  0.51mm
23:39 46.3 °F /  7.9 °C 44.1 °F /  6.7 °C 29.86in /  1011.1hPa NE 2.0mph /  3.2km/h 5.0mph /  8km/h 92% 0.01in /  0.25mm
23:44 46.4 °F /  8 °C 44.2 °F /  6.8 °C 29.85in /  1010.7hPa NE 2.0mph /  3.2km/h 5.0mph /  8km/h 92% 0.02in /  0.51mm
23:50 46.3 °F /  7.9 °C 44.1 °F /  6.7 °C 29.85in /  1010.7hPa NE 1.0mph /  1.6km/h 4.0mph /  6.4km/h 92% 0.02in /  0.51mm
23:54 46.3 °F /  7.9 °C 44.1 °F /  6.7 °C 29.85in /  1010.7hPa NE 1.0mph /  1.6km/h 3.0mph /  4.8km/h 92% 0.02in /  0.51mm
23:59 46.2 °F /  7.9 °C 44.0 °F /  6.7 °C 29.85in /  1010.7hPa Calm   1.0mph /  1.6km/h 92% 0.02in /  0.51mm
Buffalo, New York, USA
Compliments of Weather Underground - 2.5 mb